createdAt,value
2017-01-29T00:01:02.225Z,23.04
2017-01-29T00:02:02.528Z,23.18
2017-01-29T00:02:17.250Z,23.18
2017-01-29T00:03:02.867Z,23.18
2017-01-29T00:03:17.697Z,23.18
2017-01-29T00:03:32.905Z,23.18
2017-01-29T00:04:18.765Z,23.22
2017-01-29T00:04:33.456Z,23.19
2017-01-29T00:05:34.429Z,23.24
2017-01-29T00:06:41.596Z,23.35
2017-01-29T00:08:29.367Z,23.34
2017-01-29T00:09:45.805Z,23.28
2017-01-29T00:10:00.582Z,23.34
2017-01-29T00:12:02.749Z,23.32
2017-01-29T00:12:17.339Z,23.34
2017-01-29T00:13:17.782Z,23.35
2017-01-29T00:14:34.438Z,23.29
2017-01-29T00:15:19.974Z,23.28
2017-01-29T00:16:05.678Z,23.25
2017-01-29T00:16:51.324Z,23.34
2017-01-29T00:17:06.188Z,23.34
2017-01-29T00:18:37.529Z,23.44
2017-01-29T00:18:52.039Z,23.37
2017-01-29T00:19:07.000Z,23.38
2017-01-29T00:20:38.311Z,23.42
2017-01-29T00:20:53.126Z,23.44
2017-01-29T00:21:38.708Z,23.45
2017-01-29T00:22:24.592Z,23.47
2017-01-29T00:23:41.071Z,23.47
2017-01-29T00:24:57.573Z,23.45
2017-01-29T00:25:12.350Z,23.42
2017-01-29T00:26:29.335Z,23.41
2017-01-29T00:27:34.576Z,23.38
2017-01-29T00:27:49.187Z,23.4
2017-01-29T00:28:03.957Z,23.45
2017-01-29T00:28:53.847Z,23.48
2017-01-29T00:29:39.396Z,23.4
2017-01-29T00:31:41.825Z,23.35
2017-01-29T00:32:27.533Z,23.37
2017-01-29T00:32:42.157Z,23.4
2017-01-29T00:35:20.752Z,23.41
2017-01-29T00:36:37.353Z,23.32
2017-01-29T00:39:56.636Z,23.47
2017-01-29T00:40:57.226Z,23.56
2017-01-29T00:41:12.766Z,23.55
2017-01-29T00:43:00.270Z,23.56
2017-01-29T00:43:45.905Z,23.42
2017-01-29T00:44:00.609Z,23.42
2017-01-29T00:45:23.859Z,23.45
2017-01-29T00:46:09.462Z,23.45
2017-01-29T00:46:24.185Z,23.48
2017-01-29T00:46:42.068Z,23.53
2017-01-29T00:48:29.883Z,23.53
2017-01-29T00:49:15.669Z,23.55
2017-01-29T00:50:01.351Z,23.6
2017-01-29T00:50:16.119Z,23.57
2017-01-29T00:51:01.842Z,23.59
2017-01-29T00:51:47.411Z,23.56
2017-01-29T00:52:33.195Z,23.57
2017-01-29T00:52:48.172Z,23.63
2017-01-29T00:53:02.800Z,23.64
2017-01-29T00:53:17.574Z,23.63
2017-01-29T00:53:32.608Z,23.57
2017-01-29T00:54:18.223Z,23.71
2017-01-29T00:55:04.567Z,23.63
2017-01-29T00:56:21.732Z,23.74
2017-01-29T00:57:07.376Z,23.7
2017-01-29T00:59:10.250Z,23.63
2017-01-29T00:59:25.095Z,23.72
2017-01-29T00:59:40.065Z,23.72
2017-01-29T01:00:56.630Z,23.57
2017-01-29T01:01:13.318Z,23.59
2017-01-29T01:01:28.294Z,23.53
2017-01-29T01:02:13.922Z,23.48
2017-01-29T01:02:28.688Z,23.57
2017-01-29T01:03:45.236Z,23.6
2017-01-29T01:04:53.633Z,23.52
2017-01-29T01:05:08.486Z,23.47
2017-01-29T01:05:23.341Z,23.55
2017-01-29T01:06:58.048Z,23.42
2017-01-29T01:07:13.204Z,23.53
2017-01-29T01:07:58.826Z,23.42
2017-01-29T01:09:04.543Z,23.47
2017-01-29T01:09:50.519Z,23.4
2017-01-29T01:11:07.041Z,23.34
2017-01-29T01:11:52.703Z,23.38
2017-01-29T01:12:07.516Z,23.35
2017-01-29T01:13:24.001Z,23.44
2017-01-29T01:13:39.046Z,23.42
2017-01-29T01:14:24.631Z,23.4
2017-01-29T01:15:10.468Z,23.5
2017-01-29T01:15:56.103Z,23.41
2017-01-29T01:16:10.984Z,23.4
2017-01-29T01:16:25.634Z,23.41
2017-01-29T01:16:40.448Z,23.41
2017-01-29T01:17:26.122Z,23.42
2017-01-29T01:18:26.456Z,23.37
2017-01-29T01:19:12.154Z,23.4
2017-01-29T01:19:58.798Z,23.38
2017-01-29T01:20:44.766Z,23.37
2017-01-29T01:20:59.725Z,23.48
2017-01-29T01:21:45.374Z,23.42
2017-01-29T01:22:00.206Z,23.4
2017-01-29T01:22:15.049Z,23.45
2017-01-29T01:22:29.944Z,23.45
2017-01-29T01:22:45.379Z,23.41
2017-01-29T01:27:20.911Z,23.26
2017-01-29T01:27:36.247Z,23.34
2017-01-29T01:31:10.246Z,23.44
2017-01-29T01:31:24.989Z,23.48
2017-01-29T01:33:41.969Z,23.45
2017-01-29T01:34:16.712Z,23.52
2017-01-29T01:35:02.386Z,23.53
2017-01-29T01:36:20.218Z,23.47
2017-01-29T01:36:35.099Z,23.55
2017-01-29T01:37:20.641Z,23.52
2017-01-29T01:38:06.068Z,23.41
2017-01-29T01:38:20.774Z,23.45
2017-01-29T01:39:06.631Z,23.4
2017-01-29T01:41:45.020Z,23.35
2017-01-29T01:43:01.567Z,23.24
2017-01-29T01:43:48.424Z,23.34
2017-01-29T01:45:27.920Z,23.19
2017-01-29T01:46:44.561Z,23.03
2017-01-29T01:47:01.034Z,23.09
2017-01-29T01:47:46.735Z,23.04
2017-01-29T01:48:32.334Z,23.04
2017-01-29T01:49:32.710Z,23.16
2017-01-29T01:50:18.354Z,23.07
2017-01-29T01:50:33.164Z,23.15
2017-01-29T01:51:18.944Z,23.1
2017-01-29T01:52:50.444Z,23.12
2017-01-29T01:54:22.175Z,23.14
2017-01-29T01:54:37.112Z,23.07
2017-01-29T01:55:22.792Z,23.01
2017-01-29T01:55:37.366Z,23.07
2017-01-29T01:56:24.375Z,23.14
2017-01-29T01:57:10.181Z,23.1
2017-01-29T01:57:25.179Z,23.07
2017-01-29T01:58:10.939Z,23.01
2017-01-29T01:58:56.431Z,22.97
2017-01-29T01:59:59.180Z,22.94
2017-01-29T02:00:13.948Z,23.03
2017-01-29T02:00:28.935Z,22.92
2017-01-29T02:01:45.384Z,22.85
2017-01-29T02:02:31.225Z,22.92
2017-01-29T02:03:47.575Z,22.92
2017-01-29T02:04:02.296Z,22.91
2017-01-29T02:04:17.000Z,22.81
2017-01-29T02:05:33.066Z,22.85
2017-01-29T02:06:18.892Z,22.91
2017-01-29T02:07:35.464Z,22.88
2017-01-29T02:07:50.417Z,22.88
2017-01-29T02:08:35.933Z,22.97
2017-01-29T02:09:21.542Z,22.91
2017-01-29T02:09:36.278Z,22.97
2017-01-29T02:09:52.260Z,23.01
2017-01-29T02:10:07.272Z,22.89
2017-01-29T02:10:21.989Z,22.99
2017-01-29T02:11:30.004Z,22.94
2017-01-29T02:11:49.767Z,22.88
2017-01-29T02:12:04.615Z,22.94
2017-01-29T02:12:37.310Z,22.89
2017-01-29T02:13:22.867Z,22.91
2017-01-29T02:13:37.706Z,23
2017-01-29T02:14:23.336Z,22.88
2017-01-29T02:14:38.095Z,22.91
2017-01-29T02:15:12.234Z,22.91
2017-01-29T02:15:58.165Z,22.88
2017-01-29T02:16:20.082Z,22.85
2017-01-29T02:16:34.897Z,22.85
2017-01-29T02:17:21.235Z,23.01
2017-01-29T02:17:36.102Z,22.86
2017-01-29T02:18:01.100Z,22.92
2017-01-29T02:18:15.849Z,22.91
2017-01-29T02:19:01.540Z,22.88
2017-01-29T02:19:47.269Z,22.84
2017-01-29T02:20:05.145Z,22.84
2017-01-29T02:20:20.612Z,22.82
2017-01-29T02:20:41.743Z,22.86
2017-01-29T02:21:27.546Z,22.79
2017-01-29T02:21:42.314Z,22.91
2017-01-29T02:21:57.185Z,22.84
2017-01-29T02:22:49.627Z,22.81
2017-01-29T02:23:35.171Z,22.85
2017-01-29T02:23:49.999Z,22.85
2017-01-29T02:24:18.366Z,22.75
2017-01-29T02:24:36.050Z,22.82
2017-01-29T02:24:51.995Z,22.78
2017-01-29T02:25:06.774Z,22.78
2017-01-29T02:25:47.289Z,22.85
2017-01-29T02:26:05.386Z,22.84
2017-01-29T02:26:20.161Z,22.81
2017-01-29T02:26:34.980Z,22.81
2017-01-29T02:26:49.683Z,22.78
2017-01-29T02:27:29.958Z,22.88
2017-01-29T02:27:45.414Z,22.82
2017-01-29T02:28:00.480Z,22.86
2017-01-29T02:28:15.466Z,22.82
2017-01-29T02:28:31.608Z,22.81
2017-01-29T02:28:46.288Z,22.81
2017-01-29T02:29:01.965Z,22.78
2017-01-29T02:29:44.827Z,22.75
2017-01-29T02:29:59.585Z,22.84
2017-01-29T02:30:14.477Z,22.79
2017-01-29T02:30:29.224Z,22.84
2017-01-29T02:30:44.004Z,22.79
2017-01-29T02:30:58.844Z,22.79
2017-01-29T02:31:14.466Z,22.78
2017-01-29T02:31:29.199Z,22.79
2017-01-29T02:31:43.837Z,22.81
2017-01-29T02:32:00.586Z,22.76
2017-01-29T02:32:35.249Z,22.82
2017-01-29T02:33:16.611Z,22.78
2017-01-29T02:33:31.301Z,22.78
2017-01-29T02:34:06.489Z,22.82
2017-01-29T02:34:47.851Z,22.82
2017-01-29T02:35:02.759Z,22.84
2017-01-29T02:35:17.439Z,22.84
2017-01-29T02:35:32.151Z,22.85
2017-01-29T02:35:46.829Z,22.89
2017-01-29T02:36:01.651Z,22.84
2017-01-29T02:36:16.359Z,22.81
2017-01-29T02:36:31.173Z,22.78
2017-01-29T02:36:51.379Z,22.82
2017-01-29T02:37:37.147Z,22.82
2017-01-29T02:37:52.050Z,22.85
2017-01-29T02:38:08.835Z,22.84
2017-01-29T02:38:26.288Z,22.82
2017-01-29T02:39:07.754Z,22.76
2017-01-29T02:39:22.457Z,22.89
2017-01-29T02:39:43.309Z,22.82
2017-01-29T02:41:46.045Z,22.84
2017-01-29T02:43:39.614Z,22.88
2017-01-29T02:43:54.265Z,22.96
2017-01-29T02:44:39.824Z,22.86
2017-01-29T02:45:48.718Z,22.86
2017-01-29T02:46:34.509Z,22.82
2017-01-29T02:46:49.214Z,22.85
2017-01-29T02:47:55.143Z,22.86
2017-01-29T02:48:09.946Z,22.84
2017-01-29T02:48:55.588Z,22.81
2017-01-29T02:49:34.422Z,22.79
2017-01-29T02:49:49.110Z,22.89
2017-01-29T02:50:03.805Z,22.86
2017-01-29T02:50:18.520Z,22.85
2017-01-29T02:51:05.615Z,22.84
2017-01-29T02:51:21.170Z,22.86
2017-01-29T03:06:37.479Z,22.84
2017-01-29T03:06:52.234Z,23.01
2017-01-29T03:07:06.836Z,23
2017-01-29T03:07:21.520Z,23.01
2017-01-29T03:07:36.273Z,22.96
2017-01-29T03:07:51.045Z,22.97
2017-01-29T03:08:05.840Z,23.06
2017-01-29T03:08:20.661Z,23
2017-01-29T03:08:36.642Z,23.01
2017-01-29T03:08:51.664Z,23.01
2017-01-29T03:09:06.438Z,23.03
2017-01-29T03:09:21.226Z,22.97
2017-01-29T03:09:35.935Z,22.96
2017-01-29T03:09:50.601Z,23.04
2017-01-29T03:10:05.428Z,22.96
2017-01-29T03:10:20.261Z,23.03
2017-01-29T03:10:34.863Z,22.99
2017-01-29T03:10:49.695Z,23.07
2017-01-29T03:11:04.511Z,23
2017-01-29T03:11:19.170Z,23
2017-01-29T03:11:34.000Z,23.01
2017-01-29T03:11:48.859Z,23
2017-01-29T03:12:03.623Z,22.99
2017-01-29T03:12:18.358Z,22.97
2017-01-29T03:12:33.001Z,23.03
2017-01-29T03:12:47.566Z,22.99
2017-01-29T03:13:02.276Z,22.94
2017-01-29T03:13:16.978Z,22.94
2017-01-29T03:13:31.720Z,22.86
2017-01-29T03:13:46.517Z,22.97
2017-01-29T03:14:01.162Z,22.96
2017-01-29T03:14:15.819Z,22.91
2017-01-29T03:14:30.485Z,22.85
2017-01-29T03:14:45.271Z,22.84
2017-01-29T03:15:00.037Z,22.88
2017-01-29T03:15:14.961Z,22.88
2017-01-29T03:15:29.565Z,22.85
2017-01-29T03:15:44.094Z,22.88
2017-01-29T03:15:58.919Z,22.92
2017-01-29T03:16:13.581Z,22.96
2017-01-29T03:16:28.345Z,22.97
2017-01-29T03:16:43.255Z,22.91
2017-01-29T03:16:58.127Z,22.96
2017-01-29T03:17:12.771Z,22.91
2017-01-29T03:17:27.446Z,22.96
2017-01-29T03:17:42.236Z,22.88
2017-01-29T03:17:57.026Z,22.92
2017-01-29T03:18:11.640Z,22.81
2017-01-29T03:18:26.218Z,22.85
2017-01-29T03:18:41.018Z,22.84
2017-01-29T03:18:55.575Z,22.82
2017-01-29T03:19:10.229Z,22.84
2017-01-29T03:19:24.938Z,22.88
2017-01-29T03:19:39.763Z,22.88
2017-01-29T03:19:54.682Z,22.85
2017-01-29T03:20:09.473Z,22.85
2017-01-29T03:20:24.471Z,22.79
2017-01-29T03:20:39.239Z,22.88
2017-01-29T03:20:54.043Z,22.79
2017-01-29T03:21:08.801Z,22.88
2017-01-29T03:21:23.614Z,22.84
2017-01-29T03:21:38.885Z,22.79
2017-01-29T03:21:53.677Z,22.82
2017-01-29T03:22:08.356Z,22.78
2017-01-29T03:22:23.078Z,22.79
2017-01-29T03:22:37.857Z,22.81
2017-01-29T03:22:52.644Z,22.84
2017-01-29T03:23:07.505Z,22.79
2017-01-29T03:23:22.199Z,22.79
2017-01-29T03:23:37.061Z,22.82
2017-01-29T03:23:51.733Z,22.81
2017-01-29T03:24:06.513Z,22.76
2017-01-29T03:24:21.293Z,22.79
2017-01-29T03:24:36.028Z,22.78
2017-01-29T03:24:50.838Z,22.78
2017-01-29T03:25:05.567Z,22.76
2017-01-29T03:25:20.136Z,22.82
2017-01-29T03:25:34.832Z,22.79
2017-01-29T03:25:49.507Z,22.71
2017-01-29T03:26:04.330Z,22.82
2017-01-29T03:26:19.121Z,22.76
2017-01-29T03:26:33.951Z,22.76
2017-01-29T03:26:48.952Z,22.81
2017-01-29T03:27:03.617Z,22.7
2017-01-29T03:27:18.293Z,22.7
2017-01-29T03:27:33.053Z,22.75
2017-01-29T03:27:47.752Z,22.73
2017-01-29T03:28:02.310Z,22.67
2017-01-29T03:28:17.069Z,22.7
2017-01-29T03:28:31.777Z,22.75
2017-01-29T03:28:46.390Z,22.71
2017-01-29T03:29:01.221Z,22.67
2017-01-29T03:29:15.945Z,22.71
2017-01-29T03:29:30.747Z,22.67
2017-01-29T03:29:45.451Z,22.69
2017-01-29T03:30:00.213Z,22.69
2017-01-29T03:30:14.944Z,22.73
2017-01-29T03:30:29.608Z,22.69
2017-01-29T03:30:44.424Z,22.76
2017-01-29T03:30:59.185Z,22.76
2017-01-29T03:31:13.724Z,22.71
2017-01-29T03:31:28.334Z,22.7
2017-01-29T03:31:43.293Z,22.69
2017-01-29T03:31:57.995Z,22.69
2017-01-29T03:32:12.608Z,22.7
2017-01-29T03:32:27.232Z,22.76
2017-01-29T03:32:41.995Z,22.75
2017-01-29T03:32:56.723Z,22.78
2017-01-29T03:33:11.573Z,22.7
2017-01-29T03:33:26.443Z,22.73
2017-01-29T03:33:41.228Z,22.67
2017-01-29T03:33:55.880Z,22.69
2017-01-29T03:34:10.683Z,22.67
2017-01-29T03:34:25.486Z,22.7
2017-01-29T03:34:40.201Z,22.66
2017-01-29T03:34:54.939Z,22.69
2017-01-29T03:35:09.691Z,22.66
2017-01-29T03:35:24.421Z,22.66
2017-01-29T03:35:39.211Z,22.61
2017-01-29T03:35:54.092Z,22.54
2017-01-29T03:36:08.646Z,22.59
2017-01-29T03:36:23.330Z,22.55
2017-01-29T03:36:38.111Z,22.64
2017-01-29T03:36:53.131Z,22.61
2017-01-29T03:37:07.804Z,22.59
2017-01-29T03:37:22.461Z,22.6
2017-01-29T03:37:37.236Z,22.63
2017-01-29T03:37:51.914Z,22.55
2017-01-29T03:38:06.676Z,22.63
2017-01-29T03:38:21.322Z,22.64
2017-01-29T03:38:36.193Z,22.55
2017-01-29T03:38:50.934Z,22.6
2017-01-29T03:39:05.696Z,22.57
2017-01-29T03:39:20.408Z,22.59
2017-01-29T03:39:35.005Z,22.61
2017-01-29T03:39:49.611Z,22.63
2017-01-29T03:40:04.272Z,22.61
2017-01-29T03:40:19.133Z,22.51
2017-01-29T03:40:33.817Z,22.59
2017-01-29T03:40:48.580Z,22.59
2017-01-29T03:41:03.179Z,22.51
2017-01-29T03:41:17.862Z,22.51
2017-01-29T03:41:32.585Z,22.45
2017-01-29T03:41:47.448Z,22.46
2017-01-29T03:42:02.116Z,22.51
2017-01-29T03:42:16.824Z,22.52
2017-01-29T03:42:31.677Z,22.52
2017-01-29T03:42:46.536Z,22.55
2017-01-29T03:43:01.263Z,22.48
2017-01-29T03:43:16.169Z,22.57
2017-01-29T03:43:30.876Z,22.55
2017-01-29T03:43:45.621Z,22.46
2017-01-29T03:44:00.354Z,22.49
2017-01-29T03:44:15.113Z,22.51
2017-01-29T03:44:30.172Z,22.49
2017-01-29T03:44:44.940Z,22.49
2017-01-29T03:44:59.578Z,22.41
2017-01-29T03:45:14.416Z,22.42
2017-01-29T03:45:29.226Z,22.48
2017-01-29T03:45:44.176Z,22.42
2017-01-29T03:45:58.837Z,22.52
2017-01-29T03:46:13.593Z,22.51
2017-01-29T03:46:28.390Z,22.54
2017-01-29T03:46:43.141Z,22.54
2017-01-29T03:46:57.962Z,22.49
2017-01-29T03:47:12.740Z,22.57
2017-01-29T03:47:27.475Z,22.54
2017-01-29T03:47:42.103Z,22.52
2017-01-29T03:47:56.888Z,22.6
2017-01-29T03:48:11.871Z,22.59
2017-01-29T03:48:26.563Z,22.6
2017-01-29T03:48:41.467Z,22.6
2017-01-29T03:48:56.180Z,22.55
2017-01-29T03:49:10.966Z,22.6
2017-01-29T03:49:25.748Z,22.64
2017-01-29T03:49:40.496Z,22.63
2017-01-29T03:49:55.170Z,22.61
2017-01-29T03:50:09.682Z,22.64
2017-01-29T03:50:24.473Z,22.63
2017-01-29T03:50:39.096Z,22.69
2017-01-29T03:50:54.084Z,22.69
2017-01-29T03:51:08.805Z,22.66
2017-01-29T03:51:23.608Z,22.64
2017-01-29T03:51:38.309Z,22.64
2017-01-29T03:51:53.668Z,22.59
2017-01-29T03:52:08.291Z,22.63
2017-01-29T03:52:22.908Z,22.59
2017-01-29T03:52:37.439Z,22.6
2017-01-29T03:52:52.103Z,22.63
2017-01-29T03:53:06.731Z,22.57
2017-01-29T03:53:21.373Z,22.64
2017-01-29T03:53:36.035Z,22.59
2017-01-29T03:53:50.735Z,22.61
2017-01-29T03:54:05.576Z,22.61
2017-01-29T03:54:20.208Z,22.61
2017-01-29T03:54:34.971Z,22.64
2017-01-29T03:54:49.864Z,22.61
2017-01-29T03:55:04.577Z,22.63
2017-01-29T03:55:19.258Z,22.59
2017-01-29T03:55:33.912Z,22.55
2017-01-29T03:55:48.581Z,22.59
2017-01-29T03:56:03.520Z,22.52
2017-01-29T03:56:18.301Z,22.55
2017-01-29T03:56:33.044Z,22.48
2017-01-29T03:56:47.593Z,22.55
2017-01-29T03:57:02.522Z,22.52
2017-01-29T03:57:17.183Z,22.54
2017-01-29T03:57:31.953Z,22.54
2017-01-29T03:57:46.685Z,22.52
2017-01-29T03:58:01.344Z,22.51
2017-01-29T03:58:15.886Z,22.49
2017-01-29T03:58:30.788Z,22.52
2017-01-29T03:58:45.520Z,22.51
2017-01-29T03:59:00.156Z,22.51
2017-01-29T03:59:14.848Z,22.48
2017-01-29T03:59:29.823Z,22.52
2017-01-29T03:59:44.535Z,22.52
2017-01-29T03:59:59.226Z,22.59
2017-01-29T04:00:13.887Z,22.41
2017-01-29T04:00:28.595Z,22.42
2017-01-29T04:00:43.328Z,22.39
2017-01-29T04:00:58.086Z,22.42
2017-01-29T04:01:12.761Z,22.38
2017-01-29T04:01:27.472Z,22.42
2017-01-29T04:01:42.322Z,22.41
2017-01-29T04:01:57.112Z,22.48
2017-01-29T04:02:11.886Z,22.42
2017-01-29T04:02:26.655Z,22.36
2017-01-29T04:02:41.421Z,22.41
2017-01-29T04:02:56.208Z,22.42
2017-01-29T04:03:10.955Z,22.34
2017-01-29T04:03:25.711Z,22.31
2017-01-29T04:03:40.532Z,22.44
2017-01-29T04:03:55.259Z,22.39
2017-01-29T04:04:10.115Z,22.41
2017-01-29T04:04:24.909Z,22.42
2017-01-29T04:04:39.556Z,22.33
2017-01-29T04:04:54.337Z,22.36
2017-01-29T04:05:09.020Z,22.34
2017-01-29T04:05:23.745Z,22.29
2017-01-29T04:05:38.528Z,22.33
2017-01-29T04:05:53.235Z,22.36
2017-01-29T04:06:07.784Z,22.42
2017-01-29T04:06:22.464Z,22.33
2017-01-29T04:06:37.220Z,22.34
2017-01-29T04:06:51.924Z,22.41
2017-01-29T04:07:07.051Z,22.31
2017-01-29T04:07:21.853Z,22.34
2017-01-29T04:07:36.501Z,22.31
2017-01-29T04:07:51.404Z,22.29
2017-01-29T04:08:06.176Z,22.39
2017-01-29T04:08:20.902Z,22.39
2017-01-29T04:08:35.572Z,22.3
2017-01-29T04:08:50.212Z,22.3
2017-01-29T04:09:05.012Z,22.39
2017-01-29T04:09:19.703Z,22.36
2017-01-29T04:09:34.349Z,22.36
2017-01-29T04:09:49.050Z,22.38
2017-01-29T04:10:03.827Z,22.29
2017-01-29T04:10:18.489Z,22.33
2017-01-29T04:10:33.309Z,22.29
2017-01-29T04:10:48.017Z,22.31
2017-01-29T04:11:02.788Z,22.38
2017-01-29T04:11:17.439Z,22.3
2017-01-29T04:11:32.282Z,22.33
2017-01-29T04:11:46.847Z,22.29
2017-01-29T04:12:01.913Z,22.38
2017-01-29T04:12:16.711Z,22.39
2017-01-29T04:12:31.579Z,22.33
2017-01-29T04:12:46.301Z,22.39
2017-01-29T04:13:00.920Z,22.42
2017-01-29T04:13:15.758Z,22.42
2017-01-29T04:13:30.630Z,22.39
2017-01-29T04:13:45.372Z,22.46
2017-01-29T04:14:00.049Z,22.44
2017-01-29T04:14:14.614Z,22.41
2017-01-29T04:14:29.330Z,22.46
2017-01-29T04:14:44.003Z,22.31
2017-01-29T04:14:58.865Z,22.33
2017-01-29T04:15:13.638Z,22.34
2017-01-29T04:15:28.307Z,22.46
2017-01-29T04:15:43.127Z,22.44
2017-01-29T04:15:58.037Z,22.42
2017-01-29T04:16:12.847Z,22.44
2017-01-29T04:16:27.499Z,22.42
2017-01-29T04:16:42.079Z,22.48
2017-01-29T04:16:56.834Z,22.51
2017-01-29T04:17:11.605Z,22.49
2017-01-29T04:17:26.313Z,22.46
2017-01-29T04:17:41.141Z,22.52
2017-01-29T04:17:55.873Z,22.59
2017-01-29T04:18:10.523Z,22.52
2017-01-29T04:18:25.271Z,22.57
2017-01-29T04:18:39.999Z,22.46
2017-01-29T04:18:54.650Z,22.55
2017-01-29T04:19:09.394Z,22.49
2017-01-29T04:19:24.134Z,22.52
2017-01-29T04:19:38.765Z,22.55
2017-01-29T04:19:53.466Z,22.52
2017-01-29T04:20:08.029Z,22.6
2017-01-29T04:20:22.710Z,22.49
2017-01-29T04:20:37.441Z,22.52
2017-01-29T04:20:52.297Z,22.52
2017-01-29T04:21:07.032Z,22.49
2017-01-29T04:21:21.700Z,22.54
2017-01-29T04:21:36.462Z,22.51
2017-01-29T04:21:51.191Z,22.54
2017-01-29T04:22:06.047Z,22.6
2017-01-29T04:22:20.838Z,22.54
2017-01-29T04:22:35.541Z,22.6
2017-01-29T04:22:50.263Z,22.6
2017-01-29T04:23:05.036Z,22.54
2017-01-29T04:23:19.774Z,22.52
2017-01-29T04:23:34.479Z,22.55
2017-01-29T04:23:49.158Z,22.57
2017-01-29T04:24:03.704Z,22.52
2017-01-29T04:24:18.390Z,22.52
2017-01-29T04:24:33.287Z,22.46
2017-01-29T04:24:48.048Z,22.52
2017-01-29T04:25:02.849Z,22.48
2017-01-29T04:25:17.692Z,22.54
2017-01-29T04:25:32.447Z,22.51
2017-01-29T04:25:47.170Z,22.52
2017-01-29T04:26:01.939Z,22.57
2017-01-29T04:26:16.698Z,22.55
2017-01-29T04:26:31.411Z,22.54
2017-01-29T04:26:45.988Z,22.54
2017-01-29T04:27:00.792Z,22.51
2017-01-29T04:27:15.627Z,22.49
2017-01-29T04:27:30.409Z,22.45
2017-01-29T04:27:45.161Z,22.57
2017-01-29T04:27:59.786Z,22.52
2017-01-29T04:28:14.426Z,22.54
2017-01-29T04:28:29.113Z,22.54
2017-01-29T04:28:43.815Z,22.51
2017-01-29T04:28:58.544Z,22.49
2017-01-29T04:29:13.355Z,22.6
2017-01-29T04:29:28.087Z,22.54
2017-01-29T04:29:42.906Z,22.57
2017-01-29T04:29:57.616Z,22.64
2017-01-29T04:30:12.389Z,22.55
2017-01-29T04:30:27.236Z,22.59
2017-01-29T04:30:41.892Z,22.57
2017-01-29T04:30:56.574Z,22.61
2017-01-29T04:31:11.383Z,22.6
2017-01-29T04:31:26.192Z,22.55
2017-01-29T04:31:40.870Z,22.57
2017-01-29T04:31:55.630Z,22.55
2017-01-29T04:32:10.311Z,22.61
2017-01-29T04:32:24.963Z,22.61
2017-01-29T04:32:39.805Z,22.57
2017-01-29T04:32:54.596Z,22.57
2017-01-29T04:33:09.310Z,22.6
2017-01-29T04:33:23.893Z,22.57
2017-01-29T04:33:38.575Z,22.59
2017-01-29T04:33:53.429Z,22.54
2017-01-29T04:34:08.315Z,22.59
2017-01-29T04:34:23.091Z,22.61
2017-01-29T04:34:37.794Z,22.57
2017-01-29T04:34:52.473Z,22.59
2017-01-29T04:35:07.056Z,22.54
2017-01-29T04:35:21.892Z,22.57
2017-01-29T04:35:36.503Z,22.57
2017-01-29T04:35:51.308Z,22.54
2017-01-29T04:36:06.079Z,22.57
2017-01-29T04:36:20.758Z,22.57
2017-01-29T04:36:35.412Z,22.57
2017-01-29T04:36:50.195Z,22.51
2017-01-29T04:37:04.956Z,22.51
2017-01-29T04:37:19.869Z,22.48
2017-01-29T04:37:34.692Z,22.49
2017-01-29T04:37:49.536Z,22.48
2017-01-29T04:38:04.417Z,22.49
2017-01-29T04:38:19.088Z,22.54
2017-01-29T04:38:33.856Z,22.59
2017-01-29T04:38:48.655Z,22.57
2017-01-29T04:39:03.278Z,22.54
2017-01-29T04:39:18.024Z,22.54
2017-01-29T04:39:32.698Z,22.49
2017-01-29T04:39:47.565Z,22.57
2017-01-29T04:40:02.231Z,22.57
2017-01-29T04:40:16.995Z,22.52
2017-01-29T04:40:31.777Z,22.52
2017-01-29T04:40:46.547Z,22.48
2017-01-29T04:41:01.351Z,22.48
2017-01-29T04:41:15.910Z,22.51
2017-01-29T04:41:30.567Z,22.48
2017-01-29T04:41:45.349Z,22.52
2017-01-29T04:42:00.177Z,22.51
2017-01-29T04:42:15.047Z,22.51
2017-01-29T04:42:29.747Z,22.54
2017-01-29T04:42:44.561Z,22.49
2017-01-29T04:42:59.271Z,22.51
2017-01-29T04:43:13.964Z,22.6
2017-01-29T04:43:28.926Z,22.52
2017-01-29T04:43:43.777Z,22.55
2017-01-29T04:43:58.395Z,22.52
2017-01-29T04:44:13.130Z,22.51
2017-01-29T04:44:27.780Z,22.49
2017-01-29T04:44:42.559Z,22.6
2017-01-29T04:44:57.460Z,22.54
2017-01-29T04:45:12.232Z,22.63
2017-01-29T04:45:26.843Z,22.49
2017-01-29T04:45:41.478Z,22.61
2017-01-29T04:45:56.267Z,22.61
2017-01-29T04:46:11.137Z,22.57
2017-01-29T04:46:25.834Z,22.61
2017-01-29T04:46:40.645Z,22.66
2017-01-29T04:46:55.378Z,22.67
2017-01-29T04:47:10.173Z,22.67
2017-01-29T04:47:25.077Z,22.69
2017-01-29T04:47:39.862Z,22.69
2017-01-29T04:47:54.562Z,22.66
2017-01-29T04:48:09.219Z,22.69
2017-01-29T04:48:23.957Z,22.71
2017-01-29T04:48:38.701Z,22.66
2017-01-29T04:48:53.611Z,22.64
2017-01-29T04:49:08.497Z,22.67
2017-01-29T04:49:23.381Z,22.67
2017-01-29T04:49:38.108Z,22.69
2017-01-29T04:49:53.034Z,22.64
2017-01-29T04:50:07.610Z,22.61
2017-01-29T04:50:22.338Z,22.64
2017-01-29T04:50:36.954Z,22.57
2017-01-29T04:50:51.725Z,22.63
2017-01-29T04:51:06.428Z,22.6
2017-01-29T04:51:21.095Z,22.59
2017-01-29T04:51:35.916Z,22.49
2017-01-29T04:51:50.750Z,22.52
2017-01-29T04:52:05.582Z,22.48
2017-01-29T04:52:20.564Z,22.51
2017-01-29T04:52:35.533Z,22.52
2017-01-29T04:52:50.237Z,22.51
2017-01-29T04:53:05.048Z,22.52
2017-01-29T04:53:19.798Z,22.51
2017-01-29T04:53:34.400Z,22.52
2017-01-29T04:53:49.137Z,22.49
2017-01-29T04:54:03.999Z,22.54
2017-01-29T04:54:18.689Z,22.55
2017-01-29T04:54:33.450Z,22.55
2017-01-29T04:54:48.267Z,22.52
2017-01-29T04:55:02.935Z,22.57
2017-01-29T04:55:17.578Z,22.59
2017-01-29T04:55:32.303Z,22.57
2017-01-29T04:55:47.095Z,22.54
2017-01-29T04:56:01.845Z,22.54
2017-01-29T04:56:16.477Z,22.59
2017-01-29T04:56:31.269Z,22.64
2017-01-29T04:56:46.057Z,22.66
2017-01-29T04:57:00.897Z,22.66
2017-01-29T04:57:15.609Z,22.64
2017-01-29T04:57:30.412Z,22.69
2017-01-29T04:57:45.045Z,22.63
2017-01-29T04:57:59.735Z,22.66
2017-01-29T04:58:14.498Z,22.73
2017-01-29T04:58:29.137Z,22.7
2017-01-29T04:58:43.924Z,22.66
2017-01-29T04:58:58.641Z,22.64
2017-01-29T04:59:13.567Z,22.69
2017-01-29T04:59:28.188Z,22.64
2017-01-29T04:59:42.759Z,22.67
2017-01-29T04:59:57.559Z,22.7
2017-01-29T05:00:12.276Z,22.67
2017-01-29T05:00:26.922Z,22.66
2017-01-29T05:00:41.631Z,22.69
2017-01-29T05:00:56.442Z,22.64
2017-01-29T05:01:11.232Z,22.67
2017-01-29T05:01:26.160Z,22.63
2017-01-29T05:01:40.891Z,22.61
2017-01-29T05:01:55.591Z,22.66
2017-01-29T05:02:10.251Z,22.55
2017-01-29T05:02:25.144Z,22.55
2017-01-29T05:02:39.833Z,22.55
2017-01-29T05:02:54.451Z,22.63
2017-01-29T05:03:09.136Z,22.52
2017-01-29T05:03:23.980Z,22.59
2017-01-29T05:03:38.797Z,22.51
2017-01-29T05:03:53.575Z,22.63
2017-01-29T05:04:08.150Z,22.55
2017-01-29T05:04:22.838Z,22.48
2017-01-29T05:04:37.488Z,22.46
2017-01-29T05:04:52.264Z,22.48
2017-01-29T05:05:07.049Z,22.51
2017-01-29T05:05:21.669Z,22.49
2017-01-29T05:05:36.318Z,22.48
2017-01-29T05:05:51.036Z,22.6
2017-01-29T05:06:05.707Z,22.51
2017-01-29T05:06:20.366Z,22.49
2017-01-29T05:06:35.232Z,22.51
2017-01-29T05:06:50.086Z,22.51
2017-01-29T05:07:04.706Z,22.57
2017-01-29T05:07:19.309Z,22.51
2017-01-29T05:07:34.342Z,22.57
2017-01-29T05:07:49.090Z,22.46
2017-01-29T05:08:03.736Z,22.52
2017-01-29T05:08:18.574Z,22.52
2017-01-29T05:08:33.239Z,22.52
2017-01-29T05:08:47.964Z,22.54
2017-01-29T05:09:02.556Z,22.52
2017-01-29T05:09:17.231Z,22.52
2017-01-29T05:09:31.850Z,22.52
2017-01-29T05:09:46.642Z,22.52
2017-01-29T05:10:01.521Z,22.6
2017-01-29T05:10:16.427Z,22.51
2017-01-29T05:10:31.234Z,22.49
2017-01-29T05:10:46.021Z,22.48
2017-01-29T05:11:00.737Z,22.54
2017-01-29T05:11:15.613Z,22.55
2017-01-29T05:11:30.292Z,22.57
2017-01-29T05:11:45.027Z,22.54
2017-01-29T05:11:59.713Z,22.57
2017-01-29T05:12:14.315Z,22.49
2017-01-29T05:12:28.912Z,22.54
2017-01-29T05:12:43.719Z,22.48
2017-01-29T05:12:58.381Z,22.52
2017-01-29T05:13:12.955Z,22.57
2017-01-29T05:13:27.753Z,22.52
2017-01-29T05:13:42.462Z,22.48
2017-01-29T05:13:57.141Z,22.46
2017-01-29T05:14:11.792Z,22.55
2017-01-29T05:14:26.395Z,22.57
2017-01-29T05:14:41.204Z,22.59
2017-01-29T05:14:55.947Z,22.59
2017-01-29T05:15:10.637Z,22.64
2017-01-29T05:15:25.333Z,22.6
2017-01-29T05:15:40.042Z,22.61
2017-01-29T05:15:54.812Z,22.64